createdAt,value
2018-06-25T00:01:49.956Z,99913.80
2018-06-25T00:04:19.904Z,99907.78
2018-06-25T00:06:49.774Z,99912.18
2018-06-25T00:09:19.668Z,99916.55
2018-06-25T00:11:49.528Z,99918.73
2018-06-25T00:14:19.352Z,99922.59
2018-06-25T00:16:49.196Z,99924.51
2018-06-25T00:19:19.092Z,99919.29
2018-06-25T00:21:49.007Z,99920.40
2018-06-25T00:24:18.810Z,99922.31
2018-06-25T00:26:48.659Z,99924.50
2018-06-25T00:29:18.569Z,99810.92
2018-06-25T00:31:48.392Z,99919.81
2018-06-25T00:34:18.262Z,99918.98
2018-06-25T00:36:48.148Z,99925.00
2018-06-25T00:39:18.029Z,99923.09
2018-06-25T00:41:47.836Z,99927.72
2018-06-25T00:44:17.700Z,99927.16
2018-06-25T00:46:47.560Z,99927.68
2018-06-25T00:49:17.396Z,99930.19
2018-06-25T00:51:47.200Z,99938.38
2018-06-25T00:54:17.055Z,99940.31
2018-06-25T00:56:46.915Z,99937.02
2018-06-25T00:59:27.700Z,99935.40
2018-06-25T01:01:57.511Z,99934.02
2018-06-25T01:04:27.384Z,99939.81
2018-06-25T01:06:57.272Z,99944.16
2018-06-25T01:09:27.296Z,99942.27
2018-06-25T01:11:57.268Z,99942.22
2018-06-25T01:14:27.117Z,99939.78
2018-06-25T01:16:56.989Z,99941.13
2018-06-25T01:19:26.792Z,99937.56
2018-06-25T01:21:56.700Z,99933.17
2018-06-25T01:24:26.568Z,99927.42
2018-06-25T01:26:56.455Z,99927.17
2018-06-25T01:29:26.331Z,99929.09
2018-06-25T01:31:56.352Z,99925.23
2018-06-25T01:34:26.349Z,99929.38
2018-06-25T01:36:56.186Z,99926.09
2018-06-25T01:39:25.973Z,99935.98
2018-06-25T01:41:55.828Z,99931.07
2018-06-25T01:44:25.660Z,99930.25
2018-06-25T01:46:55.512Z,99936.55
2018-06-25T01:49:25.477Z,99940.95
2018-06-25T01:51:55.404Z,99944.52
2018-06-25T01:54:25.384Z,99948.63
2018-06-25T01:56:55.205Z,99942.61
2018-06-25T01:59:25.050Z,99942.63
2018-06-25T02:01:54.904Z,99941.22
2018-06-25T02:04:24.811Z,99948.64
2018-06-25T02:06:54.657Z,99948.09
2018-06-25T02:09:24.466Z,99937.40
2018-06-25T02:11:54.335Z,99942.88
2018-06-25T02:14:24.176Z,99942.33
2018-06-25T02:16:54.060Z,99954.66
2018-06-25T02:19:23.888Z,99956.02
2018-06-25T02:21:53.781Z,99953.58
2018-06-25T02:24:23.654Z,99955.75
2018-06-25T02:26:53.594Z,99955.73
2018-06-25T02:29:23.449Z,99956.03
2018-06-25T02:31:53.248Z,99957.11
2018-06-25T02:34:23.084Z,99957.39
2018-06-25T02:36:52.971Z,99952.71
2018-06-25T02:39:22.797Z,99958.77
2018-06-25T02:41:52.657Z,99951.10
2018-06-25T02:44:22.489Z,99954.14
2018-06-25T02:46:52.435Z,99957.13
2018-06-25T02:49:22.261Z,99956.32
2018-06-25T02:51:52.174Z,99961.22
2018-06-25T02:54:22.024Z,99966.41
2018-06-25T02:56:52.208Z,99965.86
2018-06-25T02:59:22.100Z,99972.17
2018-06-25T03:01:52.129Z,99968.06
2018-06-25T03:04:21.972Z,99968.91
2018-06-25T03:06:51.835Z,99971.92
2018-06-25T03:09:21.709Z,99980.70
2018-06-25T03:11:51.524Z,99978.78
2018-06-25T03:14:22.676Z,99980.12
2018-06-25T03:16:52.583Z,99983.15
2018-06-25T03:19:22.412Z,99985.87
2018-06-25T03:21:52.325Z,99983.39
2018-06-25T03:24:22.254Z,99984.20
2018-06-25T03:26:52.139Z,99988.32
2018-06-25T03:29:21.920Z,99985.28
2018-06-25T03:31:51.936Z,99990.17
2018-06-25T03:34:21.745Z,99991.77
2018-06-25T03:36:51.581Z,99988.72
2018-06-25T03:39:21.425Z,99984.58
2018-06-25T03:41:51.259Z,99982.33
2018-06-25T03:44:21.112Z,99986.12
2018-06-25T03:46:50.960Z,99992.45
2018-06-25T03:49:20.792Z,99997.64
2018-06-25T03:51:50.634Z,99999.00
2018-06-25T03:54:20.492Z,99985.81
2018-06-25T03:56:50.344Z,99993.46
2018-06-25T03:59:20.217Z,99995.97
2018-06-25T04:01:50.050Z,99998.48
2018-06-25T04:04:19.956Z,99998.68
2018-06-25T04:06:49.785Z,99994.83
2018-06-25T04:09:19.640Z,99996.97
2018-06-25T04:11:49.486Z,99994.23
2018-06-25T04:14:19.301Z,99995.58
2018-06-25T04:16:49.179Z,99996.67
2018-06-25T04:19:18.992Z,100005.38
2018-06-25T04:21:49.056Z,100003.98
2018-06-25T04:24:18.896Z,100003.70
2018-06-25T04:26:48.741Z,100001.14
2018-06-25T04:29:18.580Z,99998.91
2018-06-25T04:31:48.464Z,100006.06
2018-06-25T04:34:18.328Z,100004.19
2018-06-25T04:36:48.236Z,100008.03
2018-06-25T04:39:18.063Z,100005.97
2018-06-25T04:41:47.922Z,99999.97
2018-06-25T04:44:17.768Z,99998.41
2018-06-25T04:46:47.664Z,99998.00
2018-06-25T04:49:17.480Z,99992.94
2018-06-25T04:51:47.396Z,99995.00
2018-06-25T04:54:17.297Z,99993.47
2018-06-25T04:56:47.300Z,99989.38
2018-06-25T04:59:17.094Z,99980.97
2018-06-25T05:01:46.953Z,99981.78
2018-06-25T05:04:16.842Z,99980.23
2018-06-25T05:06:46.793Z,99983.77
2018-06-25T05:09:16.593Z,99984.41
2018-06-25T05:11:46.452Z,99989.95
2018-06-25T05:14:16.265Z,99990.05
2018-06-25T05:16:46.116Z,99990.92
2018-06-25T05:19:15.988Z,99991.98
2018-06-25T05:21:45.880Z,99986.10
2018-06-25T05:24:15.697Z,99997.28
2018-06-25T05:26:45.583Z,99996.69
2018-06-25T05:29:15.519Z,100003.80
2018-06-25T05:31:45.436Z,100000.34
2018-06-25T05:34:15.299Z,100004.41
2018-06-25T05:36:45.172Z,100008.10
2018-06-25T05:39:15.074Z,100007.25
2018-06-25T05:41:45.744Z,100006.76
2018-06-25T05:44:15.589Z,100007.70
2018-06-25T05:46:47.252Z,100011.67
2018-06-25T05:49:18.225Z,100012.06
2018-06-25T05:51:48.112Z,100019.98
2018-06-25T05:54:17.998Z,100013.33
2018-06-25T05:56:47.861Z,100013.87
2018-06-25T05:59:17.748Z,100018.59
2018-06-25T06:01:47.644Z,100020.25
2018-06-25T06:04:17.638Z,100018.84
2018-06-25T06:06:47.706Z,100014.77
2018-06-25T06:09:17.589Z,100014.35
2018-06-25T06:11:47.460Z,100013.46
2018-06-25T06:14:18.337Z,100016.96
2018-06-25T06:16:48.364Z,100015.61
2018-06-25T06:19:18.240Z,100011.28
2018-06-25T06:21:48.184Z,100011.10
2018-06-25T06:24:18.031Z,100011.52
2018-06-25T06:26:47.880Z,100001.38
2018-06-25T06:29:17.732Z,99999.76
2018-06-25T06:31:47.617Z,99994.69
2018-06-25T06:34:17.492Z,99994.53
2018-06-25T06:36:47.509Z,99987.25
2018-06-25T06:39:17.465Z,99983.63
2018-06-25T06:41:47.378Z,99988.14
2018-06-25T06:44:17.288Z,99990.38
2018-06-25T06:46:47.212Z,99988.61
2018-06-25T06:49:17.300Z,99985.56
2018-06-25T06:51:48.112Z,99977.67
2018-06-25T06:54:18.004Z,99982.23
2018-06-25T06:56:47.966Z,99982.81
2018-06-25T06:59:17.890Z,99978.12
2018-06-25T07:01:47.868Z,99976.12
2018-06-25T07:04:17.748Z,99974.86
2018-06-25T07:06:47.680Z,99971.53
2018-06-25T07:09:17.569Z,99973.61
2018-06-25T07:11:47.503Z,99975.95
2018-06-25T07:14:17.367Z,99967.94
2018-06-25T07:16:47.273Z,99968.50
2018-06-25T07:19:17.164Z,99967.55
2018-06-25T07:21:47.029Z,99962.93
2018-06-25T07:24:16.909Z,99971.28
2018-06-25T07:26:46.825Z,99961.26
2018-06-25T07:29:16.785Z,99955.86
2018-06-25T07:31:46.577Z,99954.34
2018-06-25T07:34:16.460Z,99949.05
2018-06-25T07:36:46.395Z,99955.70
2018-06-25T07:39:16.340Z,99949.55
2018-06-25T07:41:46.416Z,99948.94
2018-06-25T07:44:16.428Z,99941.87
2018-06-25T07:46:46.469Z,99946.41
2018-06-25T07:49:16.430Z,99934.14
2018-06-25T07:51:46.252Z,99937.50
2018-06-25T07:54:16.180Z,99937.50
2018-06-25T07:56:46.077Z,99936.48
2018-06-25T07:59:15.891Z,99935.44
2018-06-25T08:01:45.819Z,99935.42
2018-06-25T08:04:16.164Z,99938.36
2018-06-25T08:06:46.180Z,99943.41
2018-06-25T08:09:16.188Z,99942.45
2018-06-25T08:11:46.110Z,99940.52
2018-06-25T08:14:16.825Z,99944.94
2018-06-25T08:16:46.978Z,99937.27
2018-06-25T08:19:16.760Z,99947.95
2018-06-25T08:21:46.662Z,99945.49
2018-06-25T08:24:16.617Z,99947.38
2018-06-25T08:26:46.567Z,99941.30
2018-06-25T08:29:16.552Z,99949.44
2018-06-25T08:31:46.524Z,99942.31
2018-06-25T08:34:16.479Z,99943.00
2018-06-25T08:36:46.364Z,99942.75
2018-06-25T08:39:16.305Z,99939.66
2018-06-25T08:41:46.317Z,99944.05
2018-06-25T08:44:16.220Z,99940.89
2018-06-25T08:46:46.240Z,99930.17
2018-06-25T08:49:16.113Z,99930.11
2018-06-25T08:51:46.127Z,99924.21
2018-06-25T08:54:16.069Z,99936.38
2018-06-25T08:56:45.931Z,99936.06
2018-06-25T08:59:15.897Z,99919.84
2018-06-25T09:01:45.866Z,99923.08
2018-06-25T09:04:15.840Z,99919.66
2018-06-25T09:06:45.708Z,99919.56
2018-06-25T09:09:15.595Z,99918.41
2018-06-25T09:11:45.445Z,99909.50
2018-06-25T09:14:15.320Z,99908.60
2018-06-25T09:16:45.210Z,99907.42
2018-06-25T09:19:15.072Z,99901.61
2018-06-25T09:21:44.949Z,99904.14
2018-06-25T09:24:14.824Z,99900.69
2018-06-25T09:26:44.728Z,99894.20
2018-06-25T09:29:14.653Z,99897.66
2018-06-25T09:31:44.544Z,99889.76
2018-06-25T09:34:19.445Z,99889.61
2018-06-25T09:36:49.396Z,99884.81
2018-06-25T09:39:19.396Z,99891.17
2018-06-25T09:41:49.333Z,99795.59
2018-06-25T09:44:19.283Z,99882.55
2018-06-25T09:46:49.164Z,99879.55
2018-06-25T09:49:19.145Z,99876.30
2018-06-25T09:51:49.132Z,99874.91
2018-06-25T09:54:18.968Z,99873.05
2018-06-25T09:56:48.894Z,99862.63
2018-06-25T09:59:18.879Z,99861.70
2018-06-25T10:01:48.787Z,99855.99
2018-06-25T10:04:18.708Z,99861.25
2018-06-25T10:06:48.620Z,99855.61
2018-06-25T10:09:18.475Z,99857.94
2018-06-25T10:11:48.348Z,99773.27
2018-06-25T10:14:18.257Z,99857.66
2018-06-25T10:16:48.166Z,99849.03
2018-06-25T10:19:18.017Z,99846.22
2018-06-25T10:21:47.984Z,99847.36
2018-06-25T10:24:17.853Z,99847.04
2018-06-25T10:26:47.740Z,99846.95
2018-06-25T10:29:17.688Z,99838.33
2018-06-25T10:31:47.516Z,99838.45
2018-06-25T10:34:17.457Z,99840.39
2018-06-25T10:36:47.387Z,99831.95
2018-06-25T10:39:17.359Z,99830.94
2018-06-25T10:41:47.286Z,99827.78
2018-06-25T10:44:17.227Z,99829.35
2018-06-25T10:46:47.060Z,99811.13
2018-06-25T10:49:17.076Z,99819.59
2018-06-25T10:51:47.020Z,99807.90
2018-06-25T10:54:16.965Z,99808.47
2018-06-25T10:56:46.864Z,99807.88
2018-06-25T10:59:16.733Z,99808.20
2018-06-25T11:01:46.585Z,99801.16
2018-06-25T11:04:16.595Z,99736.11
2018-06-25T11:06:46.573Z,99811.19
2018-06-25T11:09:16.661Z,99802.67
2018-06-25T11:11:46.592Z,99799.41
2018-06-25T11:14:16.461Z,99799.98
2018-06-25T11:16:46.384Z,99794.84
2018-06-25T11:19:16.230Z,99800.32
2018-06-25T11:21:46.149Z,99796.86
2018-06-25T11:24:16.329Z,99789.50
2018-06-25T11:26:46.347Z,99782.98
2018-06-25T11:29:16.357Z,99788.06
2018-06-25T11:31:46.274Z,99785.72
2018-06-25T11:34:16.260Z,99708.33
2018-06-25T11:36:46.108Z,99770.77
2018-06-25T11:39:15.958Z,99777.30
2018-06-25T11:41:45.900Z,99767.89
2018-06-25T11:44:15.790Z,99761.77
2018-06-25T11:46:45.724Z,99762.71
2018-06-25T11:49:15.556Z,99767.48
2018-06-25T11:51:45.486Z,99755.28
2018-06-25T11:54:15.308Z,99754.08
2018-06-25T11:56:45.308Z,99759.36
2018-06-25T11:59:15.176Z,99748.53
2018-06-25T12:01:45.122Z,99760.00
2018-06-25T12:04:15.307Z,99749.78
2018-06-25T12:06:45.428Z,99749.64
2018-06-25T12:09:15.453Z,99746.35
2018-06-25T12:11:45.276Z,99746.13
2018-06-25T12:14:15.166Z,99740.66
2018-06-25T12:16:45.104Z,99738.97
2018-06-25T12:19:15.034Z,99736.62
2018-06-25T12:21:44.880Z,99725.68
2018-06-25T12:24:14.736Z,99657.16
2018-06-25T12:26:44.717Z,99728.56
2018-06-25T12:29:14.765Z,99725.96
2018-06-25T12:31:44.697Z,99720.23
2018-06-25T12:34:14.614Z,99718.81
2018-06-25T12:36:44.533Z,99717.52
2018-06-25T12:39:14.532Z,99720.05
2018-06-25T12:41:44.556Z,99710.73
2018-06-25T12:44:14.409Z,99709.25
2018-06-25T12:46:44.319Z,99707.65
2018-06-25T12:49:14.245Z,99703.36
2018-06-25T12:51:44.156Z,99710.27
2018-06-25T12:54:14.088Z,99710.80
2018-06-25T12:56:43.984Z,99702.41
2018-06-25T12:59:13.922Z,99699.67
2018-06-25T13:01:44.020Z,99693.28
2018-06-25T13:04:13.956Z,99694.38
2018-06-25T13:06:43.990Z,99699.47
2018-06-25T13:09:14.218Z,99692.78
2018-06-25T13:11:44.080Z,99702.79
2018-06-25T13:14:13.958Z,99631.38
2018-06-25T13:16:43.805Z,99704.34
2018-06-25T13:19:13.722Z,99693.85
2018-06-25T13:21:43.560Z,99698.76
2018-06-25T13:24:14.112Z,99695.34
2018-06-25T13:26:43.972Z,99687.45
2018-06-25T13:29:13.983Z,99704.26
2018-06-25T13:31:44.025Z,99699.45
2018-06-25T13:34:14.091Z,99609.06
2018-06-25T13:36:44.064Z,99696.80
2018-06-25T13:39:13.987Z,99695.73
2018-06-25T13:41:43.908Z,99695.97
2018-06-25T13:44:13.731Z,99696.11
2018-06-25T13:46:43.692Z,99692.56
2018-06-25T13:49:13.600Z,99690.83
2018-06-25T13:51:43.521Z,99686.82
2018-06-25T13:54:13.951Z,99690.59
2018-06-25T13:56:43.944Z,99696.52
2018-06-25T13:59:13.961Z,99692.47
2018-06-25T14:01:43.932Z,99686.94
2018-06-25T14:04:13.877Z,99688.31
2018-06-25T14:06:44.968Z,99685.69
2018-06-25T14:09:14.892Z,99689.31
2018-06-25T14:11:44.792Z,99681.84
2018-06-25T14:14:14.658Z,99679.39
2018-06-25T14:16:44.778Z,99672.66
2018-06-25T14:19:14.609Z,99681.52
2018-06-25T14:21:44.469Z,99669.98
2018-06-25T14:24:19.564Z,99669.63
2018-06-25T14:26:49.475Z,99670.17
2018-06-25T14:29:24.335Z,99666.05
2018-06-25T14:31:58.396Z,99663.46
2018-06-25T14:34:28.230Z,99661.42
2018-06-25T14:36:58.116Z,99673.19
2018-06-25T14:39:27.980Z,99669.56
2018-06-25T14:41:57.868Z,99673.86
2018-06-25T14:44:27.753Z,99671.71
2018-06-25T14:46:57.621Z,99665.05
2018-06-25T14:49:27.523Z,99669.66
2018-06-25T14:51:57.403Z,99660.28
2018-06-25T14:54:27.856Z,99658.52
2018-06-25T14:56:57.708Z,99658.81
2018-06-25T14:59:27.562Z,99659.31
2018-06-25T15:01:57.402Z,99659.79
2018-06-25T15:04:27.257Z,99655.92
2018-06-25T15:06:57.092Z,99662.80
2018-06-25T15:09:26.956Z,99665.09
2018-06-25T15:11:56.798Z,99660.78
2018-06-25T15:14:26.684Z,99664.89
2018-06-25T15:16:56.504Z,99663.22
2018-06-25T15:19:26.379Z,99668.75
2018-06-25T15:21:56.278Z,99663.56
2018-06-25T15:24:26.173Z,99665.27
2018-06-25T15:26:56.041Z,99661.27
2018-06-25T15:29:25.870Z,99570.09
2018-06-25T15:31:55.777Z,99656.77
2018-06-25T15:34:25.650Z,99656.77
2018-06-25T15:36:55.536Z,99656.17
2018-06-25T15:39:25.384Z,99654.61
2018-06-25T15:41:55.284Z,99651.02
2018-06-25T15:44:25.122Z,99647.91
2018-06-25T15:46:54.968Z,99648.79
2018-06-25T15:49:24.780Z,99647.12
2018-06-25T15:51:54.580Z,99654.15
2018-06-25T15:54:24.452Z,99656.88
2018-06-25T15:56:54.252Z,99648.94
2018-06-25T15:59:24.181Z,99644.69
2018-06-25T16:01:54.023Z,99648.23
2018-06-25T16:04:23.864Z,99638.48
2018-06-25T16:06:53.701Z,99648.63
2018-06-25T16:09:23.568Z,99653.08
2018-06-25T16:11:53.553Z,99650.08
2018-06-25T16:14:23.425Z,99644.07
2018-06-25T16:16:53.295Z,99649.59
2018-06-25T16:19:23.115Z,99644.25
2018-06-25T16:21:52.973Z,99658.36
2018-06-25T16:24:23.100Z,99643.91
2018-06-25T16:26:53.124Z,99643.00
2018-06-25T16:29:23.071Z,99650.16
2018-06-25T16:31:53.372Z,99652.73
2018-06-25T16:34:23.236Z,99655.66
2018-06-25T16:36:53.144Z,99657.52
2018-06-25T16:39:22.939Z,99663.19
2018-06-25T16:41:52.772Z,99670.59
2018-06-25T16:44:22.652Z,99668.70
2018-06-25T16:46:52.476Z,99668.23
2018-06-25T16:49:22.309Z,99672.17
2018-06-25T16:51:52.133Z,99679.77
2018-06-25T16:54:21.914Z,99686.72
2018-06-25T16:56:51.805Z,99684.30
2018-06-25T16:59:21.753Z,99689.70
2018-06-25T17:01:51.688Z,99698.16
2018-06-25T17:04:21.484Z,99690.60
2018-06-25T17:06:51.411Z,99689.64
2018-06-25T17:09:21.232Z,99688.25
2018-06-25T17:11:51.102Z,99686.78
2018-06-25T17:14:21.048Z,99687.70
2018-06-25T17:16:50.933Z,99691.80
2018-06-25T17:19:20.800Z,99681.10
2018-06-25T17:21:50.649Z,99683.26
2018-06-25T17:24:20.476Z,99678.36
2018-06-25T17:26:50.367Z,99684.45
2018-06-25T17:29:20.243Z,99678.13
2018-06-25T17:31:50.125Z,99678.53
2018-06-25T17:34:19.922Z,99676.45
2018-06-25T17:36:49.784Z,99682.61
2018-06-25T17:39:19.672Z,99686.39
2018-06-25T17:41:49.472Z,99687.72
2018-06-25T17:44:19.355Z,99692.25
2018-06-25T17:46:49.286Z,99696.67
2018-06-25T17:49:19.096Z,99699.90
2018-06-25T17:51:48.981Z,99701.00
2018-06-25T17:54:18.910Z,99702.31
2018-06-25T17:56:48.733Z,99696.41
2018-06-25T17:59:18.580Z,99696.80
2018-06-25T18:01:48.445Z,99701.44
2018-06-25T18:04:18.293Z,99702.34
2018-06-25T18:06:48.409Z,99694.13
2018-06-25T18:09:18.315Z,99693.38
2018-06-25T18:11:48.149Z,99696.17
2018-06-25T18:14:18.007Z,99693.00
2018-06-25T18:16:47.855Z,99702.63
2018-06-25T18:19:17.746Z,99712.41
2018-06-25T18:21:47.595Z,99721.17
2018-06-25T18:24:17.468Z,99722.79
2018-06-25T18:26:47.340Z,99729.31
2018-06-25T18:29:17.148Z,99727.98
2018-06-25T18:31:47.024Z,99728.64
2018-06-25T18:34:16.904Z,99735.38
2018-06-25T18:36:47.099Z,99734.17
2018-06-25T18:39:16.900Z,99751.17
2018-06-25T18:41:46.755Z,99756.27
2018-06-25T18:44:16.607Z,99764.23
2018-06-25T18:46:46.452Z,99765.61
2018-06-25T18:49:16.324Z,99773.00
2018-06-25T18:51:46.115Z,99777.55
2018-06-25T18:54:15.971Z,99784.05
2018-06-25T18:56:45.800Z,99787.37
2018-06-25T18:59:15.654Z,99784.61
2018-06-25T19:01:45.550Z,99784.77
2018-06-25T19:04:15.481Z,99786.45
2018-06-25T19:06:45.364Z,99788.53
2018-06-25T19:09:15.169Z,99791.45
2018-06-25T19:11:45.052Z,99795.80
2018-06-25T19:14:14.837Z,99807.50
2018-06-25T19:16:44.700Z,99802.23
2018-06-25T19:19:14.531Z,99806.06
2018-06-25T19:21:44.419Z,99801.88
2018-06-25T19:24:14.965Z,99804.63
2018-06-25T19:26:44.756Z,99817.20
2018-06-25T19:29:14.612Z,99818.46
2018-06-25T19:31:44.420Z,99812.20
2018-06-25T19:34:14.290Z,99807.06
2018-06-25T19:36:44.089Z,99804.71
2018-06-25T19:39:14.536Z,99805.66
2018-06-25T19:41:44.404Z,99802.59
2018-06-25T19:44:14.240Z,99802.38
2018-06-25T19:46:44.133Z,99800.22
2018-06-25T19:49:13.952Z,99804.13
2018-06-25T19:51:43.816Z,99815.02
2018-06-25T19:54:14.176Z,99813.58
2018-06-25T19:56:43.993Z,99816.09
2018-06-25T19:59:13.863Z,99821.56
2018-06-25T20:01:43.674Z,99829.95
2018-06-25T20:04:13.497Z,99830.82
2018-06-25T20:06:43.372Z,99832.31
2018-06-25T20:09:13.843Z,99827.67
2018-06-25T20:11:43.705Z,99827.67
2018-06-25T20:14:13.562Z,99830.67
2018-06-25T20:16:43.501Z,99831.59
2018-06-25T20:19:13.275Z,99825.22
2018-06-25T20:21:43.146Z,99833.17
2018-06-25T20:24:13.001Z,99836.36
2018-06-25T20:26:42.828Z,99836.36
2018-06-25T20:29:13.065Z,99842.43
2018-06-25T20:31:42.903Z,99840.48
2018-06-25T20:34:12.968Z,99839.97
2018-06-25T20:36:42.844Z,99841.97
2018-06-25T20:39:13.098Z,99839.54
2018-06-25T20:41:42.950Z,99837.94
2018-06-25T20:44:13.484Z,99840.59
2018-06-25T20:46:43.385Z,99851.28
2018-06-25T20:49:13.246Z,99840.88
2018-06-25T20:51:43.133Z,99835.82
2018-06-25T20:54:12.966Z,99839.34
2018-06-25T20:56:42.826Z,99848.36
2018-06-25T20:59:12.725Z,99854.66
2018-06-25T21:01:42.563Z,99851.73
2018-06-25T21:04:12.462Z,99858.73
2018-06-25T21:06:42.322Z,99856.98
2018-06-25T21:09:13.020Z,99854.56
2018-06-25T21:11:43.364Z,99854.24
2018-06-25T21:14:13.208Z,99855.95
2018-06-25T21:16:43.147Z,99855.06
2018-06-25T21:19:12.999Z,99806.06
2018-06-25T21:21:42.856Z,99861.57
2018-06-25T21:24:12.733Z,99862.67
2018-06-25T21:26:42.568Z,99863.00
2018-06-25T21:29:12.385Z,99865.73
2018-06-25T21:31:42.225Z,99857.92
2018-06-25T21:34:12.832Z,99869.73
2018-06-25T21:36:42.672Z,99868.83
2018-06-25T21:39:12.556Z,99861.81
2018-06-25T21:41:42.448Z,99858.88
2018-06-25T21:44:12.288Z,99862.17
2018-06-25T21:46:42.075Z,99864.64
2018-06-25T21:49:11.903Z,99858.33
2018-06-25T21:51:41.746Z,99862.53
2018-06-25T21:54:11.543Z,99861.45
2018-06-25T21:56:41.370Z,99864.52
2018-06-25T21:59:11.246Z,99866.49
2018-06-25T22:01:41.235Z,99855.02
2018-06-25T22:04:11.103Z,99855.22
2018-06-25T22:06:40.952Z,99852.22
2018-06-25T22:09:10.829Z,99848.11
2018-06-25T22:11:40.728Z,99842.36
2018-06-25T22:14:10.919Z,99844.56
2018-06-25T22:16:40.848Z,99847.31
2018-06-25T22:19:10.689Z,99846.88
2018-06-25T22:21:41.377Z,99836.17
2018-06-25T22:24:11.213Z,99834.03
2018-06-25T22:26:41.076Z,99831.77
2018-06-25T22:29:10.932Z,99832.89
2018-06-25T22:31:40.732Z,99830.47
2018-06-25T22:34:10.576Z,99828.24
2018-06-25T22:36:40.388Z,99833.78
2018-06-25T22:39:11.904Z,99825.85
2018-06-25T22:41:42.216Z,99829.98
2018-06-25T22:44:13.372Z,99827.19
2018-06-25T22:46:44.096Z,99827.23
2018-06-25T22:49:14.658Z,99831.48
2018-06-25T22:51:44.474Z,99823.20
2018-06-25T22:54:14.316Z,99827.16
2018-06-25T22:56:44.196Z,99825.22
2018-06-25T22:59:14.055Z,99827.19
2018-06-25T23:01:43.886Z,99823.50
2018-06-25T23:04:14.593Z,99829.77
2018-06-25T23:06:44.436Z,99825.41
2018-06-25T23:09:14.423Z,99824.77
2018-06-25T23:11:44.260Z,99816.06
2018-06-25T23:14:14.057Z,99812.63
2018-06-25T23:16:43.882Z,99814.28
2018-06-25T23:19:14.244Z,99808.50
2018-06-25T23:21:44.041Z,99807.09
2018-06-25T23:24:13.883Z,99800.85
2018-06-25T23:26:43.724Z,99797.55
2018-06-25T23:29:13.560Z,99791.45
2018-06-25T23:31:43.373Z,99787.13
2018-06-25T23:34:13.219Z,99793.70
2018-06-25T23:36:43.033Z,99801.66
2018-06-25T23:39:13.268Z,99791.56
2018-06-25T23:41:43.204Z,99793.81
2018-06-25T23:44:13.061Z,99792.38
2018-06-25T23:46:42.928Z,99793.42
2018-06-25T23:49:12.757Z,99788.74
2018-06-25T23:51:42.611Z,99795.65
2018-06-25T23:54:12.496Z,99795.96
2018-06-25T23:56:42.336Z,99793.78
2018-06-25T23:59:12.171Z,99788.39
